sensor_id;sensor_type;location;lat;lon;timestamp;P1;durP1;ratioP1;P2;durP2;ratioP2
1446;SDS011;717;51.522;7.266;2023-07-13T00:01:26;2.83;;;0.85;;
1446;SDS011;717;51.522;7.266;2023-07-13T00:03:57;1.88;;;0.90;;
1446;SDS011;717;51.522;7.266;2023-07-13T00:06:28;3.58;;;0.85;;
1446;SDS011;717;51.522;7.266;2023-07-13T00:08:59;5.25;;;1.20;;
1446;SDS011;717;51.522;7.266;2023-07-13T00:11:29;3.83;;;1.48;;
1446;SDS011;717;51.522;7.266;2023-07-13T00:13:59;5.72;;;1.27;;
1446;SDS011;717;51.522;7.266;2023-07-13T00:16:32;5.25;;;1.23;;
1446;SDS011;717;51.522;7.266;2023-07-13T00:19:02;5.57;;;1.50;;
1446;SDS011;717;51.522;7.266;2023-07-13T00:21:33;5.70;;;1.48;;
1446;SDS011;717;51.522;7.266;2023-07-13T00:24:04;4.20;;;1.27;;
1446;SDS011;717;51.522;7.266;2023-07-13T00:26:34;4.20;;;1.30;;
1446;SDS011;717;51.522;7.266;2023-07-13T00:29:04;4.65;;;1.60;;
1446;SDS011;717;51.522;7.266;2023-07-13T00:31:37;4.85;;;1.40;;
1446;SDS011;717;51.522;7.266;2023-07-13T00:34:07;3.08;;;1.33;;
1446;SDS011;717;51.522;7.266;2023-07-13T00:36:37;2.22;;;1.17;;
1446;SDS011;717;51.522;7.266;2023-07-13T00:39:07;2.08;;;1.00;;
1446;SDS011;717;51.522;7.266;2023-07-13T00:41:37;3.85;;;1.02;;
1446;SDS011;717;51.522;7.266;2023-07-13T00:44:09;3.58;;;1.10;;
1446;SDS011;717;51.522;7.266;2023-07-13T00:46:45;2.97;;;1.00;;
1446;SDS011;717;51.522;7.266;2023-07-13T00:49:16;4.68;;;1.20;;
1446;SDS011;717;51.522;7.266;2023-07-13T00:51:50;3.72;;;1.15;;
1446;SDS011;717;51.522;7.266;2023-07-13T00:54:24;3.42;;;0.85;;
1446;SDS011;717;51.522;7.266;2023-07-13T00:56:59;3.83;;;1.33;;
1446;SDS011;717;51.522;7.266;2023-07-13T00:59:32;3.55;;;1.05;;
1446;SDS011;717;51.522;7.266;2023-07-13T01:02:06;4.03;;;0.90;;
1446;SDS011;717;51.522;7.266;2023-07-13T01:04:37;3.17;;;1.20;;
1446;SDS011;717;51.522;7.266;2023-07-13T01:07:10;2.75;;;1.00;;
1446;SDS011;717;51.522;7.266;2023-07-13T01:09:41;2.40;;;0.93;;
1446;SDS011;717;51.522;7.266;2023-07-13T01:12:12;3.22;;;0.90;;
1446;SDS011;717;51.522;7.266;2023-07-13T01:14:42;3.17;;;0.82;;
1446;SDS011;717;51.522;7.266;2023-07-13T01:17:14;2.53;;;0.93;;
1446;SDS011;717;51.522;7.266;2023-07-13T01:19:45;2.70;;;1.00;;
1446;SDS011;717;51.522;7.266;2023-07-13T01:22:18;2.83;;;1.05;;
1446;SDS011;717;51.522;7.266;2023-07-13T01:24:52;3.80;;;0.90;;
1446;SDS011;717;51.522;7.266;2023-07-13T01:27:23;4.00;;;1.40;;
1446;SDS011;717;51.522;7.266;2023-07-13T01:29:55;3.17;;;1.00;;
1446;SDS011;717;51.522;7.266;2023-07-13T01:32:28;3.03;;;1.20;;
1446;SDS011;717;51.522;7.266;2023-07-13T01:35:00;1.52;;;0.80;;
1446;SDS011;717;51.522;7.266;2023-07-13T01:37:33;3.92;;;1.10;;
1446;SDS011;717;51.522;7.266;2023-07-13T01:40:04;3.53;;;1.30;;
1446;SDS011;717;51.522;7.266;2023-07-13T01:42:35;4.20;;;1.30;;
1446;SDS011;717;51.522;7.266;2023-07-13T01:45:06;2.83;;;0.88;;
1446;SDS011;717;51.522;7.266;2023-07-13T01:47:36;3.75;;;1.13;;
1446;SDS011;717;51.522;7.266;2023-07-13T01:50:06;3.05;;;0.70;;
1446;SDS011;717;51.522;7.266;2023-07-13T01:52:40;3.50;;;1.27;;
1446;SDS011;717;51.522;7.266;2023-07-13T01:55:10;3.28;;;1.20;;
1446;SDS011;717;51.522;7.266;2023-07-13T01:57:40;4.50;;;1.30;;
1446;SDS011;717;51.522;7.266;2023-07-13T02:00:11;4.28;;;1.02;;
1446;SDS011;717;51.522;7.266;2023-07-13T02:02:42;2.38;;;0.65;;
1446;SDS011;717;51.522;7.266;2023-07-13T02:05:13;3.83;;;0.90;;
1446;SDS011;717;51.522;7.266;2023-07-13T02:07:46;4.80;;;1.10;;
1446;SDS011;717;51.522;7.266;2023-07-13T02:10:16;2.10;;;1.00;;
1446;SDS011;717;51.522;7.266;2023-07-13T02:12:47;4.35;;;1.00;;
1446;SDS011;717;51.522;7.266;2023-07-13T02:15:18;3.25;;;1.08;;
1446;SDS011;717;51.522;7.266;2023-07-13T02:17:49;2.80;;;1.02;;
1446;SDS011;717;51.522;7.266;2023-07-13T02:20:19;4.78;;;1.30;;
1446;SDS011;717;51.522;7.266;2023-07-13T02:22:51;3.63;;;1.05;;
1446;SDS011;717;51.522;7.266;2023-07-13T02:25:22;3.25;;;1.10;;
1446;SDS011;717;51.522;7.266;2023-07-13T02:27:53;3.45;;;1.10;;
1446;SDS011;717;51.522;7.266;2023-07-13T02:30:23;4.15;;;1.20;;
1446;SDS011;717;51.522;7.266;2023-07-13T02:32:53;5.22;;;1.08;;
1446;SDS011;717;51.522;7.266;2023-07-13T02:35:23;3.53;;;1.30;;
1446;SDS011;717;51.522;7.266;2023-07-13T02:37:56;4.28;;;1.00;;
1446;SDS011;717;51.522;7.266;2023-07-13T02:40:26;3.17;;;1.02;;
1446;SDS011;717;51.522;7.266;2023-07-13T02:42:59;1.50;;;0.90;;
1446;SDS011;717;51.522;7.266;2023-07-13T02:45:30;5.72;;;1.25;;
1446;SDS011;717;51.522;7.266;2023-07-13T02:48:00;3.40;;;1.10;;
1446;SDS011;717;51.522;7.266;2023-07-13T02:50:30;2.63;;;0.93;;
1446;SDS011;717;51.522;7.266;2023-07-13T02:53:03;2.45;;;0.98;;
1446;SDS011;717;51.522;7.266;2023-07-13T02:55:33;3.67;;;0.90;;
1446;SDS011;717;51.522;7.266;2023-07-13T02:58:03;2.88;;;0.82;;
1446;SDS011;717;51.522;7.266;2023-07-13T03:00:33;2.65;;;1.00;;
1446;SDS011;717;51.522;7.266;2023-07-13T03:03:08;3.35;;;1.13;;
1446;SDS011;717;51.522;7.266;2023-07-13T03:05:41;2.10;;;1.10;;
1446;SDS011;717;51.522;7.266;2023-07-13T03:08:23;2.63;;;0.77;;
1446;SDS011;717;51.522;7.266;2023-07-13T03:10:58;3.28;;;0.90;;
1446;SDS011;717;51.522;7.266;2023-07-13T03:13:31;2.00;;;0.90;;
1446;SDS011;717;51.522;7.266;2023-07-13T03:16:03;3.15;;;0.75;;
1446;SDS011;717;51.522;7.266;2023-07-13T03:18:34;3.47;;;1.17;;
1446;SDS011;717;51.522;7.266;2023-07-13T03:21:08;1.98;;;1.08;;
1446;SDS011;717;51.522;7.266;2023-07-13T03:23:41;2.95;;;1.17;;
1446;SDS011;717;51.522;7.266;2023-07-13T03:26:13;4.07;;;1.10;;
1446;SDS011;717;51.522;7.266;2023-07-13T03:28:45;2.88;;;1.40;;
1446;SDS011;717;51.522;7.266;2023-07-13T03:31:20;4.00;;;1.25;;
1446;SDS011;717;51.522;7.266;2023-07-13T03:33:52;3.65;;;1.05;;
1446;SDS011;717;51.522;7.266;2023-07-13T03:36:23;4.43;;;1.00;;
1446;SDS011;717;51.522;7.266;2023-07-13T03:39:01;2.45;;;0.98;;
1446;SDS011;717;51.522;7.266;2023-07-13T03:41:43;4.72;;;1.10;;
1446;SDS011;717;51.522;7.266;2023-07-13T03:44:15;2.90;;;1.23;;
1446;SDS011;717;51.522;7.266;2023-07-13T03:46:50;6.25;;;1.23;;
1446;SDS011;717;51.522;7.266;2023-07-13T03:49:20;3.83;;;1.00;;
1446;SDS011;717;51.522;7.266;2023-07-13T03:51:50;3.63;;;1.30;;
1446;SDS011;717;51.522;7.266;2023-07-13T03:54:23;3.50;;;1.00;;
1446;SDS011;717;51.522;7.266;2023-07-13T03:56:53;2.10;;;0.98;;
1446;SDS011;717;51.522;7.266;2023-07-13T03:59:23;3.85;;;1.10;;
1446;SDS011;717;51.522;7.266;2023-07-13T04:01:54;3.60;;;0.90;;
1446;SDS011;717;51.522;7.266;2023-07-13T04:04:24;4.78;;;1.05;;
1446;SDS011;717;51.522;7.266;2023-07-13T04:06:54;2.80;;;0.85;;
1446;SDS011;717;51.522;7.266;2023-07-13T04:09:27;2.88;;;0.90;;
1446;SDS011;717;51.522;7.266;2023-07-13T04:11:57;2.20;;;1.20;;
1446;SDS011;717;51.522;7.266;2023-07-13T04:14:27;3.58;;;1.20;;
1446;SDS011;717;51.522;7.266;2023-07-13T04:16:57;2.38;;;0.90;;
1446;SDS011;717;51.522;7.266;2023-07-13T04:19:27;2.78;;;1.20;;
1446;SDS011;717;51.522;7.266;2023-07-13T04:21:57;2.75;;;0.77;;
1446;SDS011;717;51.522;7.266;2023-07-13T04:24:30;4.95;;;1.13;;
1446;SDS011;717;51.522;7.266;2023-07-13T04:27:00;3.70;;;1.17;;
1446;SDS011;717;51.522;7.266;2023-07-13T04:29:29;2.83;;;1.00;;
1446;SDS011;717;51.522;7.266;2023-07-13T04:32:00;6.63;;;1.00;;
1446;SDS011;717;51.522;7.266;2023-07-13T04:34:30;5.25;;;1.05;;
1446;SDS011;717;51.522;7.266;2023-07-13T04:37:00;3.15;;;1.00;;
1446;SDS011;717;51.522;7.266;2023-07-13T04:39:33;3.00;;;1.00;;
1446;SDS011;717;51.522;7.266;2023-07-13T04:42:04;3.50;;;1.42;;
1446;SDS011;717;51.522;7.266;2023-07-13T04:44:34;4.18;;;1.10;;
1446;SDS011;717;51.522;7.266;2023-07-13T04:47:04;4.38;;;1.00;;
1446;SDS011;717;51.522;7.266;2023-07-13T04:49:35;6.10;;;1.10;;
1446;SDS011;717;51.522;7.266;2023-07-13T04:52:05;4.07;;;1.23;;
1446;SDS011;717;51.522;7.266;2023-07-13T04:54:39;5.57;;;1.10;;
1446;SDS011;717;51.522;7.266;2023-07-13T04:57:09;4.15;;;1.38;;
1446;SDS011;717;51.522;7.266;2023-07-13T04:59:39;2.15;;;0.98;;
1446;SDS011;717;51.522;7.266;2023-07-13T05:02:09;6.43;;;1.20;;
1446;SDS011;717;51.522;7.266;2023-07-13T05:04:40;2.83;;;1.00;;
1446;SDS011;717;51.522;7.266;2023-07-13T05:07:09;4.88;;;1.23;;
1446;SDS011;717;51.522;7.266;2023-07-13T05:09:42;2.88;;;1.50;;
1446;SDS011;717;51.522;7.266;2023-07-13T05:12:12;3.88;;;1.17;;
1446;SDS011;717;51.522;7.266;2023-07-13T05:14:42;4.65;;;1.67;;
1446;SDS011;717;51.522;7.266;2023-07-13T05:17:12;3.70;;;1.17;;
1446;SDS011;717;51.522;7.266;2023-07-13T05:19:42;3.33;;;1.40;;
1446;SDS011;717;51.522;7.266;2023-07-13T05:22:13;3.30;;;1.27;;
1446;SDS011;717;51.522;7.266;2023-07-13T05:24:45;4.88;;;1.38;;
1446;SDS011;717;51.522;7.266;2023-07-13T05:27:15;6.20;;;1.17;;
1446;SDS011;717;51.522;7.266;2023-07-13T05:29:45;4.65;;;1.42;;
1446;SDS011;717;51.522;7.266;2023-07-13T05:32:15;6.50;;;1.50;;
1446;SDS011;717;51.522;7.266;2023-07-13T05:34:46;2.65;;;1.13;;
1446;SDS011;717;51.522;7.266;2023-07-13T05:37:16;5.28;;;1.20;;
1446;SDS011;717;51.522;7.266;2023-07-13T05:39:48;4.35;;;1.45;;
1446;SDS011;717;51.522;7.266;2023-07-13T05:42:18;5.68;;;1.65;;
1446;SDS011;717;51.522;7.266;2023-07-13T05:44:48;6.78;;;1.40;;
1446;SDS011;717;51.522;7.266;2023-07-13T05:47:18;7.22;;;1.75;;
1446;SDS011;717;51.522;7.266;2023-07-13T05:49:48;4.50;;;1.23;;
1446;SDS011;717;51.522;7.266;2023-07-13T05:52:18;5.18;;;1.60;;
1446;SDS011;717;51.522;7.266;2023-07-13T05:54:51;6.63;;;1.67;;
1446;SDS011;717;51.522;7.266;2023-07-13T05:57:21;4.35;;;1.50;;
1446;SDS011;717;51.522;7.266;2023-07-13T05:59:50;5.95;;;1.60;;
1446;SDS011;717;51.522;7.266;2023-07-13T06:02:20;6.57;;;1.52;;
1446;SDS011;717;51.522;7.266;2023-07-13T06:04:50;5.35;;;1.63;;
1446;SDS011;717;51.522;7.266;2023-07-13T06:07:20;6.25;;;1.80;;
1446;SDS011;717;51.522;7.266;2023-07-13T06:09:53;8.52;;;1.92;;
1446;SDS011;717;51.522;7.266;2023-07-13T06:12:25;3.75;;;1.60;;
1446;SDS011;717;51.522;7.266;2023-07-13T06:14:56;6.78;;;2.33;;
1446;SDS011;717;51.522;7.266;2023-07-13T06:17:26;6.68;;;2.00;;
1446;SDS011;717;51.522;7.266;2023-07-13T06:19:56;5.53;;;2.08;;
1446;SDS011;717;51.522;7.266;2023-07-13T06:22:26;5.88;;;1.55;;
1446;SDS011;717;51.522;7.266;2023-07-13T06:24:58;6.28;;;2.40;;
1446;SDS011;717;51.522;7.266;2023-07-13T06:27:32;6.93;;;1.85;;
1446;SDS011;717;51.522;7.266;2023-07-13T06:30:02;4.28;;;1.50;;
1446;SDS011;717;51.522;7.266;2023-07-13T06:32:32;5.20;;;2.10;;
1446;SDS011;717;51.522;7.266;2023-07-13T06:35:06;4.90;;;1.65;;
1446;SDS011;717;51.522;7.266;2023-07-13T06:37:39;5.28;;;2.17;;
1446;SDS011;717;51.522;7.266;2023-07-13T06:40:12;5.32;;;2.05;;
1446;SDS011;717;51.522;7.266;2023-07-13T06:42:42;5.15;;;1.98;;
1446;SDS011;717;51.522;7.266;2023-07-13T06:45:12;4.60;;;2.15;;
1446;SDS011;717;51.522;7.266;2023-07-13T06:47:42;6.68;;;1.90;;
1446;SDS011;717;51.522;7.266;2023-07-13T06:50:12;5.78;;;2.30;;
1446;SDS011;717;51.522;7.266;2023-07-13T06:52:42;5.55;;;1.85;;
1446;SDS011;717;51.522;7.266;2023-07-13T06:55:14;6.63;;;2.30;;
1446;SDS011;717;51.522;7.266;2023-07-13T06:57:44;4.95;;;2.10;;
1446;SDS011;717;51.522;7.266;2023-07-13T07:00:15;8.25;;;2.92;;
1446;SDS011;717;51.522;7.266;2023-07-13T07:02:45;6.78;;;2.28;;
1446;SDS011;717;51.522;7.266;2023-07-13T07:05:16;6.35;;;2.55;;
1446;SDS011;717;51.522;7.266;2023-07-13T07:07:49;5.90;;;2.15;;
1446;SDS011;717;51.522;7.266;2023-07-13T07:10:21;6.38;;;2.10;;
1446;SDS011;717;51.522;7.266;2023-07-13T07:12:51;5.28;;;2.22;;
1446;SDS011;717;51.522;7.266;2023-07-13T07:15:21;5.97;;;2.00;;
1446;SDS011;717;51.522;7.266;2023-07-13T07:17:51;6.07;;;2.10;;
1446;SDS011;717;51.522;7.266;2023-07-13T07:20:21;4.40;;;1.88;;
1446;SDS011;717;51.522;7.266;2023-07-13T07:22:51;8.23;;;2.08;;
1446;SDS011;717;51.522;7.266;2023-07-13T07:25:24;6.45;;;1.98;;
1446;SDS011;717;51.522;7.266;2023-07-13T07:27:58;6.13;;;2.70;;
1446;SDS011;717;51.522;7.266;2023-07-13T07:30:31;8.35;;;2.42;;
1446;SDS011;717;51.522;7.266;2023-07-13T07:33:07;9.23;;;2.65;;
1446;SDS011;717;51.522;7.266;2023-07-13T07:35:37;9.30;;;2.25;;
1446;SDS011;717;51.522;7.266;2023-07-13T07:38:27;7.55;;;2.60;;
1446;SDS011;717;51.522;7.266;2023-07-13T07:41:00;6.68;;;2.20;;
1446;SDS011;717;51.522;7.266;2023-07-13T07:43:35;4.72;;;2.00;;
1446;SDS011;717;51.522;7.266;2023-07-13T07:46:05;8.10;;;2.20;;
1446;SDS011;717;51.522;7.266;2023-07-13T07:48:36;6.00;;;2.22;;
1446;SDS011;717;51.522;7.266;2023-07-13T07:51:06;5.22;;;2.28;;
1446;SDS011;717;51.522;7.266;2023-07-13T07:53:36;4.13;;;2.00;;
1446;SDS011;717;51.522;7.266;2023-07-13T07:56:08;5.15;;;1.92;;
1446;SDS011;717;51.522;7.266;2023-07-13T07:58:42;5.00;;;2.20;;
1446;SDS011;717;51.522;7.266;2023-07-13T08:01:15;4.25;;;1.90;;
1446;SDS011;717;51.522;7.266;2023-07-13T08:03:48;5.10;;;2.13;;
1446;SDS011;717;51.522;7.266;2023-07-13T08:06:21;5.90;;;1.73;;
1446;SDS011;717;51.522;7.266;2023-07-13T08:09:09;4.43;;;1.85;;
1446;SDS011;717;51.522;7.266;2023-07-13T08:11:42;5.53;;;2.03;;
1446;SDS011;717;51.522;7.266;2023-07-13T08:14:15;3.50;;;1.48;;
1446;SDS011;717;51.522;7.266;2023-07-13T08:16:45;6.22;;;1.90;;
1446;SDS011;717;51.522;7.266;2023-07-13T08:19:15;3.88;;;2.03;;
1446;SDS011;717;51.522;7.266;2023-07-13T08:21:45;5.00;;;1.98;;
1446;SDS011;717;51.522;7.266;2023-07-13T08:24:16;4.60;;;2.30;;
1446;SDS011;717;51.522;7.266;2023-07-13T08:26:49;5.43;;;2.58;;
1446;SDS011;717;51.522;7.266;2023-07-13T08:29:20;6.75;;;2.53;;
1446;SDS011;717;51.522;7.266;2023-07-13T08:31:50;5.97;;;2.55;;
1446;SDS011;717;51.522;7.266;2023-07-13T08:34:20;4.68;;;2.35;;
1446;SDS011;717;51.522;7.266;2023-07-13T08:36:50;5.68;;;2.42;;
1446;SDS011;717;51.522;7.266;2023-07-13T08:39:20;6.43;;;2.03;;
1446;SDS011;717;51.522;7.266;2023-07-13T08:41:56;6.28;;;2.00;;
1446;SDS011;717;51.522;7.266;2023-07-13T08:44:31;4.55;;;2.00;;
1446;SDS011;717;51.522;7.266;2023-07-13T08:47:09;7.63;;;2.70;;
1446;SDS011;717;51.522;7.266;2023-07-13T08:49:41;5.90;;;2.28;;
1446;SDS011;717;51.522;7.266;2023-07-13T08:52:13;5.55;;;2.35;;
1446;SDS011;717;51.522;7.266;2023-07-13T08:54:51;6.93;;;2.00;;
1446;SDS011;717;51.522;7.266;2023-07-13T08:57:27;6.50;;;2.05;;
1446;SDS011;717;51.522;7.266;2023-07-13T09:00:03;5.55;;;2.15;;
1446;SDS011;717;51.522;7.266;2023-07-13T09:02:38;2.83;;;1.70;;
1446;SDS011;717;51.522;7.266;2023-07-13T09:05:15;3.17;;;1.90;;
1446;SDS011;717;51.522;7.266;2023-07-13T09:07:57;3.90;;;1.80;;
1446;SDS011;717;51.522;7.266;2023-07-13T09:10:37;7.88;;;2.00;;
1446;SDS011;717;51.522;7.266;2023-07-13T09:13:18;5.25;;;2.17;;
1446;SDS011;717;51.522;7.266;2023-07-13T09:15:56;5.05;;;2.20;;
1446;SDS011;717;51.522;7.266;2023-07-13T09:18:30;4.20;;;2.15;;
1446;SDS011;717;51.522;7.266;2023-07-13T09:21:05;7.05;;;1.80;;
1446;SDS011;717;51.522;7.266;2023-07-13T09:23:39;6.20;;;2.17;;
1446;SDS011;717;51.522;7.266;2023-07-13T09:26:11;6.13;;;1.80;;
1446;SDS011;717;51.522;7.266;2023-07-13T09:28:49;4.90;;;2.10;;
1446;SDS011;717;51.522;7.266;2023-07-13T09:31:24;5.78;;;2.15;;
1446;SDS011;717;51.522;7.266;2023-07-13T09:34:01;4.07;;;1.83;;
1446;SDS011;717;51.522;7.266;2023-07-13T09:36:32;3.20;;;2.05;;
1446;SDS011;717;51.522;7.266;2023-07-13T09:39:03;3.78;;;1.85;;
1446;SDS011;717;51.522;7.266;2023-07-13T09:41:40;3.92;;;1.80;;
1446;SDS011;717;51.522;7.266;2023-07-13T09:44:26;3.72;;;2.10;;
1446;SDS011;717;51.522;7.266;2023-07-13T09:46:59;6.43;;;2.10;;
1446;SDS011;717;51.522;7.266;2023-07-13T09:49:31;4.38;;;2.00;;
1446;SDS011;717;51.522;7.266;2023-07-13T09:52:05;5.82;;;2.78;;
1446;SDS011;717;51.522;7.266;2023-07-13T09:54:43;6.22;;;2.70;;
1446;SDS011;717;51.522;7.266;2023-07-13T09:57:16;5.53;;;2.50;;
1446;SDS011;717;51.522;7.266;2023-07-13T09:59:55;5.15;;;2.50;;
1446;SDS011;717;51.522;7.266;2023-07-13T10:02:27;3.55;;;1.95;;
1446;SDS011;717;51.522;7.266;2023-07-13T10:05:00;5.53;;;2.00;;
1446;SDS011;717;51.522;7.266;2023-07-13T10:07:35;5.10;;;2.40;;
1446;SDS011;717;51.522;7.266;2023-07-13T10:10:13;8.23;;;2.42;;
1446;SDS011;717;51.522;7.266;2023-07-13T10:12:44;5.10;;;2.17;;
1446;SDS011;717;51.522;7.266;2023-07-13T10:15:18;5.78;;;2.22;;
1446;SDS011;717;51.522;7.266;2023-07-13T10:17:51;6.82;;;2.50;;
1446;SDS011;717;51.522;7.266;2023-07-13T10:20:25;6.93;;;2.78;;
1446;SDS011;717;51.522;7.266;2023-07-13T10:22:57;6.03;;;2.30;;
1446;SDS011;717;51.522;7.266;2023-07-13T10:25:31;3.22;;;1.90;;
1446;SDS011;717;51.522;7.266;2023-07-13T10:28:04;4.68;;;2.15;;
1446;SDS011;717;51.522;7.266;2023-07-13T10:30:45;4.57;;;1.98;;
1446;SDS011;717;51.522;7.266;2023-07-13T10:33:16;4.65;;;2.15;;
1446;SDS011;717;51.522;7.266;2023-07-13T10:35:50;6.13;;;2.30;;
1446;SDS011;717;51.522;7.266;2023-07-13T10:38:25;3.47;;;1.85;;
1446;SDS011;717;51.522;7.266;2023-07-13T10:40:57;3.78;;;1.90;;
1446;SDS011;717;51.522;7.266;2023-07-13T10:43:32;3.10;;;1.75;;
1446;SDS011;717;51.522;7.266;2023-07-13T10:46:09;3.97;;;2.00;;
1446;SDS011;717;51.522;7.266;2023-07-13T10:48:42;4.57;;;1.95;;
1446;SDS011;717;51.522;7.266;2023-07-13T10:51:18;4.25;;;1.77;;
1446;SDS011;717;51.522;7.266;2023-07-13T10:56:47;6.10;;;2.25;;
1446;SDS011;717;51.522;7.266;2023-07-13T10:59:20;4.32;;;2.08;;
1446;SDS011;717;51.522;7.266;2023-07-13T11:02:10;4.03;;;2.08;;
1446;SDS011;717;51.522;7.266;2023-07-13T11:04:44;4.68;;;2.33;;
1446;SDS011;717;51.522;7.266;2023-07-13T11:07:20;7.03;;;2.13;;
1446;SDS011;717;51.522;7.266;2023-07-13T11:09:52;3.95;;;1.90;;
1446;SDS011;717;51.522;7.266;2023-07-13T11:12:28;9.73;;;2.33;;
1446;SDS011;717;51.522;7.266;2023-07-13T11:15:30;4.72;;;1.92;;
1446;SDS011;717;51.522;7.266;2023-07-13T11:18:22;2.80;;;1.63;;
1446;SDS011;717;51.522;7.266;2023-07-13T11:20:56;4.40;;;1.90;;
1446;SDS011;717;51.522;7.266;2023-07-13T11:24:01;4.97;;;2.00;;
1446;SDS011;717;51.522;7.266;2023-07-13T11:26:40;5.63;;;1.70;;
1446;SDS011;717;51.522;7.266;2023-07-13T11:29:17;6.28;;;2.53;;
1446;SDS011;717;51.522;7.266;2023-07-13T11:31:56;4.53;;;1.80;;
1446;SDS011;717;51.522;7.266;2023-07-13T11:34:31;5.30;;;1.60;;
1446;SDS011;717;51.522;7.266;2023-07-13T11:37:08;5.60;;;2.05;;
1446;SDS011;717;51.522;7.266;2023-07-13T11:39:43;4.40;;;1.63;;
1446;SDS011;717;51.522;7.266;2023-07-13T11:42:16;3.85;;;1.63;;
1446;SDS011;717;51.522;7.266;2023-07-13T11:44:49;3.58;;;2.03;;
1446;SDS011;717;51.522;7.266;2023-07-13T11:47:39;5.30;;;1.90;;
1446;SDS011;717;51.522;7.266;2023-07-13T11:50:19;5.22;;;1.75;;
1446;SDS011;717;51.522;7.266;2023-07-13T11:52:50;4.00;;;1.70;;
1446;SDS011;717;51.522;7.266;2023-07-13T11:55:29;2.63;;;1.48;;
1446;SDS011;717;51.522;7.266;2023-07-13T11:58:01;4.32;;;1.67;;
1446;SDS011;717;51.522;7.266;2023-07-13T12:00:35;3.33;;;1.67;;
1446;SDS011;717;51.522;7.266;2023-07-13T12:03:10;5.07;;;1.55;;
1446;SDS011;717;51.522;7.266;2023-07-13T12:05:57;3.33;;;2.00;;
1446;SDS011;717;51.522;7.266;2023-07-13T12:08:29;2.58;;;1.48;;
1446;SDS011;717;51.522;7.266;2023-07-13T12:11:00;3.97;;;1.98;;
1446;SDS011;717;51.522;7.266;2023-07-13T12:13:35;2.78;;;1.30;;
1446;SDS011;717;51.522;7.266;2023-07-13T12:16:10;4.00;;;1.70;;
1446;SDS011;717;51.522;7.266;2023-07-13T12:18:45;3.33;;;1.65;;
1446;SDS011;717;51.522;7.266;2023-07-13T12:21:19;3.00;;;1.45;;
1446;SDS011;717;51.522;7.266;2023-07-13T12:23:53;2.70;;;1.40;;
1446;SDS011;717;51.522;7.266;2023-07-13T12:26:23;4.72;;;1.50;;
1446;SDS011;717;51.522;7.266;2023-07-13T12:28:53;3.80;;;1.40;;
1446;SDS011;717;51.522;7.266;2023-07-13T12:31:26;3.50;;;1.40;;
1446;SDS011;717;51.522;7.266;2023-07-13T12:34:01;3.67;;;1.58;;
1446;SDS011;717;51.522;7.266;2023-07-13T12:36:36;2.30;;;1.30;;
1446;SDS011;717;51.522;7.266;2023-07-13T12:39:15;2.88;;;1.33;;
1446;SDS011;717;51.522;7.266;2023-07-13T12:41:48;4.43;;;1.42;;
1446;SDS011;717;51.522;7.266;2023-07-13T12:44:22;3.20;;;1.40;;
1446;SDS011;717;51.522;7.266;2023-07-13T12:46:57;3.03;;;1.40;;
1446;SDS011;717;51.522;7.266;2023-07-13T12:49:29;4.97;;;1.55;;
1446;SDS011;717;51.522;7.266;2023-07-13T12:52:12;4.10;;;1.38;;
1446;SDS011;717;51.522;7.266;2023-07-13T12:54:52;2.10;;;1.35;;
1446;SDS011;717;51.522;7.266;2023-07-13T12:57:32;3.05;;;1.63;;
1446;SDS011;717;51.522;7.266;2023-07-13T13:00:14;2.70;;;1.20;;
1446;SDS011;717;51.522;7.266;2023-07-13T13:02:52;2.33;;;1.20;;
1446;SDS011;717;51.522;7.266;2023-07-13T13:05:44;2.67;;;1.48;;
1446;SDS011;717;51.522;7.266;2023-07-13T13:08:16;4.07;;;1.30;;
1446;SDS011;717;51.522;7.266;2023-07-13T13:10:47;2.17;;;1.27;;
1446;SDS011;717;51.522;7.266;2023-07-13T13:13:17;2.13;;;1.00;;
1446;SDS011;717;51.522;7.266;2023-07-13T13:15:47;4.78;;;1.15;;
1446;SDS011;717;51.522;7.266;2023-07-13T13:18:17;2.55;;;1.45;;
1446;SDS011;717;51.522;7.266;2023-07-13T13:20:48;3.33;;;1.38;;
1446;SDS011;717;51.522;7.266;2023-07-13T13:23:22;3.40;;;1.35;;
1446;SDS011;717;51.522;7.266;2023-07-13T13:25:52;2.95;;;1.45;;
1446;SDS011;717;51.522;7.266;2023-07-13T13:28:22;3.38;;;1.50;;
1446;SDS011;717;51.522;7.266;2023-07-13T13:30:52;3.67;;;1.40;;
1446;SDS011;717;51.522;7.266;2023-07-13T13:33:26;4.65;;;1.55;;
1446;SDS011;717;51.522;7.266;2023-07-13T13:35:57;6.00;;;1.70;;
1446;SDS011;717;51.522;7.266;2023-07-13T13:38:29;2.70;;;1.65;;
1446;SDS011;717;51.522;7.266;2023-07-13T13:40:59;3.88;;;1.65;;
1446;SDS011;717;51.522;7.266;2023-07-13T13:43:30;3.05;;;1.50;;
1446;SDS011;717;51.522;7.266;2023-07-13T13:46:01;3.28;;;1.67;;
1446;SDS011;717;51.522;7.266;2023-07-13T13:48:35;1.63;;;1.38;;
1446;SDS011;717;51.522;7.266;2023-07-13T13:51:11;3.42;;;1.85;;
1446;SDS011;717;51.522;7.266;2023-07-13T13:53:46;4.57;;;1.83;;
1446;SDS011;717;51.522;7.266;2023-07-13T13:56:17;3.53;;;2.00;;
1446;SDS011;717;51.522;7.266;2023-07-13T13:58:48;2.55;;;1.90;;
1446;SDS011;717;51.522;7.266;2023-07-13T14:01:19;3.20;;;1.98;;
1446;SDS011;717;51.522;7.266;2023-07-13T14:03:51;2.72;;;2.03;;
1446;SDS011;717;51.522;7.266;2023-07-13T14:06:21;4.18;;;2.28;;
1446;SDS011;717;51.522;7.266;2023-07-13T14:08:54;3.00;;;2.08;;
1446;SDS011;717;51.522;7.266;2023-07-13T14:11:24;3.63;;;2.00;;
1446;SDS011;717;51.522;7.266;2023-07-13T14:13:55;3.92;;;2.30;;
1446;SDS011;717;51.522;7.266;2023-07-13T14:16:27;3.67;;;2.10;;
1446;SDS011;717;51.522;7.266;2023-07-13T14:18:59;2.40;;;1.98;;
1446;SDS011;717;51.522;7.266;2023-07-13T14:21:30;2.05;;;1.85;;
1446;SDS011;717;51.522;7.266;2023-07-13T14:24:03;3.03;;;2.17;;
1446;SDS011;717;51.522;7.266;2023-07-13T14:26:35;3.83;;;2.20;;
1446;SDS011;717;51.522;7.266;2023-07-13T14:29:11;3.40;;;2.60;;
1446;SDS011;717;51.522;7.266;2023-07-13T14:31:48;2.05;;;1.95;;
1446;SDS011;717;51.522;7.266;2023-07-13T14:34:19;4.05;;;2.53;;
1446;SDS011;717;51.522;7.266;2023-07-13T14:36:49;3.08;;;2.28;;
1446;SDS011;717;51.522;7.266;2023-07-13T14:39:23;2.33;;;2.03;;
1446;SDS011;717;51.522;7.266;2023-07-13T14:41:55;4.70;;;2.40;;
1446;SDS011;717;51.522;7.266;2023-07-13T14:44:27;4.28;;;2.63;;
1446;SDS011;717;51.522;7.266;2023-07-13T14:46:58;3.90;;;2.25;;
1446;SDS011;717;51.522;7.266;2023-07-13T14:49:31;2.72;;;2.28;;
1446;SDS011;717;51.522;7.266;2023-07-13T14:52:08;5.18;;;2.25;;
1446;SDS011;717;51.522;7.266;2023-07-13T14:54:43;2.70;;;2.45;;
1446;SDS011;717;51.522;7.266;2023-07-13T14:57:14;6.72;;;2.80;;
1446;SDS011;717;51.522;7.266;2023-07-13T14:59:45;4.22;;;2.35;;
1446;SDS011;717;51.522;7.266;2023-07-13T15:02:16;5.25;;;2.60;;
1446;SDS011;717;51.522;7.266;2023-07-13T15:04:57;3.70;;;2.35;;
1446;SDS011;717;51.522;7.266;2023-07-13T15:07:27;3.08;;;2.30;;
1446;SDS011;717;51.522;7.266;2023-07-13T15:10:00;2.90;;;2.28;;
1446;SDS011;717;51.522;7.266;2023-07-13T15:12:30;4.13;;;2.50;;
1446;SDS011;717;51.522;7.266;2023-07-13T15:15:00;3.92;;;2.63;;
1446;SDS011;717;51.522;7.266;2023-07-13T15:17:31;3.30;;;2.40;;
1446;SDS011;717;51.522;7.266;2023-07-13T15:20:11;3.47;;;2.38;;
1446;SDS011;717;51.522;7.266;2023-07-13T15:22:47;3.85;;;2.00;;
1446;SDS011;717;51.522;7.266;2023-07-13T15:25:21;4.90;;;2.50;;
1446;SDS011;717;51.522;7.266;2023-07-13T15:27:53;3.72;;;2.17;;
1446;SDS011;717;51.522;7.266;2023-07-13T15:30:25;2.78;;;2.08;;
1446;SDS011;717;51.522;7.266;2023-07-13T15:32:58;3.65;;;2.38;;
1446;SDS011;717;51.522;7.266;2023-07-13T15:35:35;2.70;;;2.20;;
1446;SDS011;717;51.522;7.266;2023-07-13T15:38:10;3.25;;;2.03;;
1446;SDS011;717;51.522;7.266;2023-07-13T15:40:46;2.83;;;1.98;;
1446;SDS011;717;51.522;7.266;2023-07-13T15:43:17;3.97;;;2.20;;
1446;SDS011;717;51.522;7.266;2023-07-13T15:45:47;4.28;;;1.90;;
1446;SDS011;717;51.522;7.266;2023-07-13T15:48:19;4.68;;;1.90;;
1446;SDS011;717;51.522;7.266;2023-07-13T15:50:51;2.65;;;2.00;;
1446;SDS011;717;51.522;7.266;2023-07-13T15:53:23;4.68;;;2.15;;
1446;SDS011;717;51.522;7.266;2023-07-13T15:55:57;5.07;;;2.38;;
1446;SDS011;717;51.522;7.266;2023-07-13T15:58:29;3.45;;;2.17;;
1446;SDS011;717;51.522;7.266;2023-07-13T16:00:59;2.95;;;2.10;;
1446;SDS011;717;51.522;7.266;2023-07-13T16:03:29;3.53;;;2.17;;
1446;SDS011;717;51.522;7.266;2023-07-13T16:05:59;9.02;;;3.45;;
1446;SDS011;717;51.522;7.266;2023-07-13T16:08:30;14.82;;;3.80;;